sensor_id;sensor_type;location;lat;lon;timestamp;pressure;altitude;pressure_sealevel;temperature
41654;BMP280;30790;52.030;7.110;2023-02-24T00:01:44;100725.56;;;20.30
41654;BMP280;30790;52.030;7.110;2023-02-24T00:04:11;100716.78;;;20.28
41654;BMP280;30790;52.030;7.110;2023-02-24T00:06:39;100717.00;;;20.27
41654;BMP280;30790;52.030;7.110;2023-02-24T00:09:08;100717.00;;;20.27
41654;BMP280;30790;52.030;7.110;2023-02-24T00:11:39;100714.53;;;20.25
41654;BMP280;30790;52.030;7.110;2023-02-24T00:14:07;100712.63;;;20.26
41654;BMP280;30790;52.030;7.110;2023-02-24T00:16:33;100709.09;;;20.25
41654;BMP280;30790;52.030;7.110;2023-02-24T00:18:59;100710.97;;;20.25
41654;BMP280;30790;52.030;7.110;2023-02-24T00:21:25;100712.31;;;20.22
41654;BMP280;30790;52.030;7.110;2023-02-24T00:23:51;100697.25;;;20.20
41654;BMP280;30790;52.030;7.110;2023-02-24T00:26:17;100705.44;;;20.20
41654;BMP280;30790;52.030;7.110;2023-02-24T00:28:43;100711.97;;;20.19
41654;BMP280;30790;52.030;7.110;2023-02-24T00:31:11;100686.03;;;20.16
41654;BMP280;30790;52.030;7.110;2023-02-24T00:33:39;100707.59;;;20.18
41654;BMP280;30790;52.030;7.110;2023-02-24T00:36:09;100700.47;;;20.17
41654;BMP280;30790;52.030;7.110;2023-02-24T00:38:35;100687.03;;;20.10
41654;BMP280;30790;52.030;7.110;2023-02-24T00:41:10;100692.31;;;20.17
41654;BMP280;30790;52.030;7.110;2023-02-24T00:43:38;100701.56;;;20.16
41654;BMP280;30790;52.030;7.110;2023-02-24T00:46:04;100703.69;;;20.14
41654;BMP280;30790;52.030;7.110;2023-02-24T00:48:39;100692.13;;;20.06
41654;BMP280;30790;52.030;7.110;2023-02-24T00:51:08;100698.50;;;20.12
41654;BMP280;30790;52.030;7.110;2023-02-24T00:53:35;100687.84;;;20.11
41654;BMP280;30790;52.030;7.110;2023-02-24T00:56:01;100685.03;;;20.05
41654;BMP280;30790;52.030;7.110;2023-02-24T00:58:26;100686.78;;;20.12
41654;BMP280;30790;52.030;7.110;2023-02-24T01:00:54;100686.19;;;20.10
41654;BMP280;30790;52.030;7.110;2023-02-24T01:03:20;100686.44;;;20.08
41654;BMP280;30790;52.030;7.110;2023-02-24T01:05:45;100679.09;;;20.09
41654;BMP280;30790;52.030;7.110;2023-02-24T01:08:11;100676.84;;;20.05
41654;BMP280;30790;52.030;7.110;2023-02-24T01:10:37;100668.69;;;20.05
41654;BMP280;30790;52.030;7.110;2023-02-24T01:13:03;100659.34;;;20.01
41654;BMP280;30790;52.030;7.110;2023-02-24T01:15:28;100657.78;;;20.05
41654;BMP280;30790;52.030;7.110;2023-02-24T01:17:54;100661.59;;;20.04
41654;BMP280;30790;52.030;7.110;2023-02-24T01:20:19;100657.78;;;20.05
41654;BMP280;30790;52.030;7.110;2023-02-24T01:22:48;100654.47;;;20.03
41654;BMP280;30790;52.030;7.110;2023-02-24T01:25:13;100652.81;;;20.02
41654;BMP280;30790;52.030;7.110;2023-02-24T01:27:39;100641.00;;;19.97
41654;BMP280;30790;52.030;7.110;2023-02-24T01:30:09;100633.19;;;20.00
41654;BMP280;30790;52.030;7.110;2023-02-24T01:32:39;100629.84;;;19.98
41654;BMP280;30790;52.030;7.110;2023-02-24T01:35:05;100625.47;;;19.97
41654;BMP280;30790;52.030;7.110;2023-02-24T01:37:31;100621.09;;;19.96
41654;BMP280;30790;52.030;7.110;2023-02-24T01:39:56;100627.13;;;19.98
41654;BMP280;30790;52.030;7.110;2023-02-24T01:42:22;100616.00;;;20.00
41654;BMP280;30790;52.030;7.110;2023-02-24T01:47:17;100620.84;;;19.98
41654;BMP280;30790;52.030;7.110;2023-02-24T01:49:48;100613.50;;;19.98
41654;BMP280;30790;52.030;7.110;2023-02-24T01:54:46;100605.81;;;19.95
41654;BMP280;30790;52.030;7.110;2023-02-24T01:57:16;100594.66;;;19.97
41654;BMP280;30790;52.030;7.110;2023-02-24T01:59:45;100596.00;;;19.94
41654;BMP280;30790;52.030;7.110;2023-02-24T02:02:13;100591.38;;;19.95
41654;BMP280;30790;52.030;7.110;2023-02-24T02:04:43;100588.31;;;19.91
41654;BMP280;30790;52.030;7.110;2023-02-24T02:07:12;100583.69;;;19.92
41654;BMP280;30790;52.030;7.110;2023-02-24T02:09:38;100574.94;;;19.90
41654;BMP280;30790;52.030;7.110;2023-02-24T02:12:08;100580.97;;;19.92
41654;BMP280;30790;52.030;7.110;2023-02-24T02:14:36;100561.25;;;19.85
41654;BMP280;30790;52.030;7.110;2023-02-24T02:17:24;100569.75;;;19.88
41654;BMP280;30790;52.030;7.110;2023-02-24T02:20:06;100564.28;;;19.88
41654;BMP280;30790;52.030;7.110;2023-02-24T02:31:33;100543.81;;;19.86
41654;BMP280;30790;52.030;7.110;2023-02-24T02:36:57;100530.44;;;19.84
41654;BMP280;30790;52.030;7.110;2023-02-24T02:42:41;100526.06;;;19.83
41654;BMP280;30790;52.030;7.110;2023-02-24T02:45:18;100524.41;;;19.82
41654;BMP280;30790;52.030;7.110;2023-02-24T02:47:47;100524.41;;;19.82
41654;BMP280;30790;52.030;7.110;2023-02-24T02:50:40;100511.56;;;19.78
41654;BMP280;30790;52.030;7.110;2023-02-24T02:53:14;100508.00;;;19.77
41654;BMP280;30790;52.030;7.110;2023-02-24T02:55:47;100504.19;;;19.78
41654;BMP280;30790;52.030;7.110;2023-02-24T02:58:21;100512.94;;;19.80
41654;BMP280;30790;52.030;7.110;2023-02-24T03:00:52;100514.59;;;19.81
41654;BMP280;30790;52.030;7.110;2023-02-24T03:03:34;100516.75;;;19.79
41654;BMP280;30790;52.030;7.110;2023-02-24T03:06:08;100508.00;;;19.77
41654;BMP280;30790;52.030;7.110;2023-02-24T03:08:38;100506.94;;;19.78
41654;BMP280;30790;52.030;7.110;2023-02-24T03:11:11;100500.91;;;19.76
41654;BMP280;30790;52.030;7.110;2023-02-24T03:13:40;100498.19;;;19.76
41654;BMP280;30790;52.030;7.110;2023-02-24T03:16:08;100489.19;;;19.75
41654;BMP280;30790;52.030;7.110;2023-02-24T03:18:39;100490.25;;;19.74
41654;BMP280;30790;52.030;7.110;2023-02-24T03:21:16;100487.19;;;19.71
41654;BMP280;30790;52.030;7.110;2023-02-24T03:23:45;100483.16;;;19.73
41654;BMP280;30790;52.030;7.110;2023-02-24T03:26:39;100477.47;;;19.75
41654;BMP280;30790;52.030;7.110;2023-02-24T03:29:15;100468.72;;;19.73
41654;BMP280;30790;52.030;7.110;2023-02-24T03:31:54;100475.22;;;19.72
41654;BMP280;30790;52.030;7.110;2023-02-24T03:34:44;100471.44;;;19.73
41654;BMP280;30790;52.030;7.110;2023-02-24T03:37:12;100467.91;;;19.72
41654;BMP280;30790;52.030;7.110;2023-02-24T03:39:37;100461.69;;;19.77
41654;BMP280;30790;52.030;7.110;2023-02-24T03:42:07;100460.13;;;19.81
41654;BMP280;30790;52.030;7.110;2023-02-24T03:44:34;100461.44;;;19.79
41654;BMP280;30790;52.030;7.110;2023-02-24T03:47:00;100459.13;;;19.87
41654;BMP280;30790;52.030;7.110;2023-02-24T03:49:26;100455.59;;;19.87
41654;BMP280;30790;52.030;7.110;2023-02-24T03:52:18;100449.38;;;19.91
41654;BMP280;30790;52.030;7.110;2023-02-24T03:55:15;100452.69;;;19.93
41654;BMP280;30790;52.030;7.110;2023-02-24T03:58:04;100450.53;;;19.95
41654;BMP280;30790;52.030;7.110;2023-02-24T04:00:49;100446.72;;;19.96
41654;BMP280;30790;52.030;7.110;2023-02-24T04:08:25;100450.69;;;20.05
41654;BMP280;30790;52.030;7.110;2023-02-24T04:11:06;100447.16;;;20.05
41654;BMP280;30790;52.030;7.110;2023-02-24T04:13:37;100444.44;;;20.05
41654;BMP280;30790;52.030;7.110;2023-02-24T04:16:11;100437.06;;;20.05
41654;BMP280;30790;52.030;7.110;2023-02-24T04:18:47;100434.16;;;20.12
41654;BMP280;30790;52.030;7.110;2023-02-24T04:21:14;100428.97;;;20.11
41654;BMP280;30790;52.030;7.110;2023-02-24T04:23:43;100433.66;;;20.15
41654;BMP280;30790;52.030;7.110;2023-02-24T04:26:10;100431.50;;;20.17
41654;BMP280;30790;52.030;7.110;2023-02-24T04:28:37;100432.31;;;20.18
41654;BMP280;30790;52.030;7.110;2023-02-24T04:31:06;100429.09;;;20.21
41654;BMP280;30790;52.030;7.110;2023-02-24T04:33:34;100420.91;;;20.21
41654;BMP280;30790;52.030;7.110;2023-02-24T04:36:00;100424.78;;;20.25
41654;BMP280;30790;52.030;7.110;2023-02-24T04:38:25;100416.59;;;20.25
41654;BMP280;30790;52.030;7.110;2023-02-24T04:40:51;100413.63;;;20.26
41654;BMP280;30790;52.030;7.110;2023-02-24T04:43:16;100411.81;;;20.32
41654;BMP280;30790;52.030;7.110;2023-02-24T04:45:42;100395.97;;;20.29
41654;BMP280;30790;52.030;7.110;2023-02-24T04:48:08;100398.75;;;20.34
41654;BMP280;30790;52.030;7.110;2023-02-24T04:50:40;100399.41;;;20.41
41654;BMP280;30790;52.030;7.110;2023-02-24T04:53:12;100396.19;;;20.44
41654;BMP280;30790;52.030;7.110;2023-02-24T04:55:40;100394.03;;;20.46
41654;BMP280;30790;52.030;7.110;2023-02-24T04:58:11;100394.59;;;20.48
41654;BMP280;30790;52.030;7.110;2023-02-24T05:00:37;100385.34;;;20.49
41654;BMP280;30790;52.030;7.110;2023-02-24T05:03:06;100378.53;;;20.52
41654;BMP280;30790;52.030;7.110;2023-02-24T05:05:32;100377.47;;;20.53
41654;BMP280;30790;52.030;7.110;2023-02-24T05:08:08;100364.91;;;20.52
41654;BMP280;30790;52.030;7.110;2023-02-24T05:10:42;100361.91;;;20.53
41654;BMP280;30790;52.030;7.110;2023-02-24T05:13:16;100353.75;;;20.53
41654;BMP280;30790;52.030;7.110;2023-02-24T05:15:43;100347.72;;;20.51
41654;BMP280;30790;52.030;7.110;2023-02-24T05:18:11;100344.47;;;20.54
41654;BMP280;30790;52.030;7.110;2023-02-24T05:20:43;100335.47;;;20.54
41654;BMP280;30790;52.030;7.110;2023-02-24T05:23:29;100342.84;;;20.53
41654;BMP280;30790;52.030;7.110;2023-02-24T05:25:59;100329.16;;;20.48
41654;BMP280;30790;52.030;7.110;2023-02-24T05:28:25;100329.72;;;20.50
41654;BMP280;30790;52.030;7.110;2023-02-24T05:30:51;100330.81;;;20.49
41654;BMP280;30790;52.030;7.110;2023-02-24T05:33:20;100319.06;;;20.49
41654;BMP280;30790;52.030;7.110;2023-02-24T05:35:49;100320.41;;;20.46
41654;BMP280;30790;52.030;7.110;2023-02-24T05:38:17;100311.66;;;20.44
41654;BMP280;30790;52.030;7.110;2023-02-24T05:40:46;100316.59;;;20.47
41654;BMP280;30790;52.030;7.110;2023-02-24T05:43:12;100312.22;;;20.46
41654;BMP280;30790;52.030;7.110;2023-02-24T05:45:43;100303.22;;;20.46
41654;BMP280;30790;52.030;7.110;2023-02-24T05:48:09;100294.47;;;20.44
41654;BMP280;30790;52.030;7.110;2023-02-24T05:50:35;100288.72;;;20.40
41654;BMP280;30790;52.030;7.110;2023-02-24T05:53:03;100287.63;;;20.41
41654;BMP280;30790;52.030;7.110;2023-02-24T05:55:28;100281.59;;;20.39
41654;BMP280;30790;52.030;7.110;2023-02-24T05:57:56;100284.09;;;20.41
41654;BMP280;30790;52.030;7.110;2023-02-24T06:00:23;100273.41;;;20.39
41654;BMP280;30790;52.030;7.110;2023-02-24T06:02:50;100270.69;;;20.39
41654;BMP280;30790;52.030;7.110;2023-02-24T06:05:17;100264.75;;;20.42
41654;BMP280;30790;52.030;7.110;2023-02-24T06:07:57;100260.94;;;20.70
41654;BMP280;30790;52.030;7.110;2023-02-24T06:10:30;100255.88;;;20.84
41654;BMP280;30790;52.030;7.110;2023-02-24T06:12:56;100249.38;;;20.90
41654;BMP280;30790;52.030;7.110;2023-02-24T06:15:21;100241.97;;;20.85
41654;BMP280;30790;52.030;7.110;2023-02-24T06:17:47;100239.25;;;20.85
41654;BMP280;30790;52.030;7.110;2023-02-24T06:20:13;100240.41;;;20.94
41654;BMP280;30790;52.030;7.110;2023-02-24T06:22:40;100238.03;;;21.08
41654;BMP280;30790;52.030;7.110;2023-02-24T06:25:07;100238.41;;;21.17
41654;BMP280;30790;52.030;7.110;2023-02-24T06:27:33;100235.41;;;21.18
41654;BMP280;30790;52.030;7.110;2023-02-24T06:30:00;100221.50;;;21.20
41654;BMP280;30790;52.030;7.110;2023-02-24T06:32:26;100226.75;;;21.32
41654;BMP280;30790;52.030;7.110;2023-02-24T06:34:52;100225.16;;;21.36
41654;BMP280;30790;52.030;7.110;2023-02-24T06:37:21;100227.94;;;21.41
41654;BMP280;30790;52.030;7.110;2023-02-24T06:39:47;100229.03;;;21.45
41654;BMP280;30790;52.030;7.110;2023-02-24T06:42:12;100231.78;;;21.50
41654;BMP280;30790;52.030;7.110;2023-02-24T06:44:39;100225.22;;;21.46
41654;BMP280;30790;52.030;7.110;2023-02-24T06:47:07;100217.84;;;21.46
41654;BMP280;30790;52.030;7.110;2023-02-24T06:49:33;100224.13;;;21.47
41654;BMP280;30790;52.030;7.110;2023-02-24T06:51:58;100219.50;;;21.47
41654;BMP280;30790;52.030;7.110;2023-02-24T06:54:25;100217.03;;;21.46
41654;BMP280;30790;52.030;7.110;2023-02-24T06:56:53;100220.28;;;21.43
41654;BMP280;30790;52.030;7.110;2023-02-24T06:59:19;100219.47;;;21.42
41654;BMP280;30790;52.030;7.110;2023-02-24T07:01:53;100210.72;;;21.40
41654;BMP280;30790;52.030;7.110;2023-02-24T07:04:19;100210.16;;;21.38
41654;BMP280;30790;52.030;7.110;2023-02-24T07:06:50;100213.72;;;21.39
41654;BMP280;30790;52.030;7.110;2023-02-24T07:09:19;100200.56;;;21.36
41654;BMP280;30790;52.030;7.110;2023-02-24T07:11:46;100205.47;;;21.34
41654;BMP280;30790;52.030;7.110;2023-02-24T07:14:20;100190.44;;;21.31
41654;BMP280;30790;52.030;7.110;2023-02-24T07:16:46;100182.78;;;21.28
41654;BMP280;30790;52.030;7.110;2023-02-24T07:19:16;100184.16;;;21.25
41654;BMP280;30790;52.030;7.110;2023-02-24T07:21:43;100183.63;;;21.28
41654;BMP280;30790;52.030;7.110;2023-02-24T07:24:15;100177.34;;;21.28
41654;BMP280;30790;52.030;7.110;2023-02-24T07:26:56;100166.94;;;21.25
41654;BMP280;30790;52.030;7.110;2023-02-24T07:29:24;100162.56;;;21.24
41654;BMP280;30790;52.030;7.110;2023-02-24T07:31:50;100171.00;;;21.22
41654;BMP280;30790;52.030;7.110;2023-02-24T07:34:20;100160.63;;;21.19
41654;BMP280;30790;52.030;7.110;2023-02-24T07:36:52;100156.81;;;21.20
41654;BMP280;30790;52.030;7.110;2023-02-24T07:39:18;100152.69;;;21.18
41654;BMP280;30790;52.030;7.110;2023-02-24T07:41:45;100145.59;;;21.17
41654;BMP280;30790;52.030;7.110;2023-02-24T07:44:14;100156.50;;;21.17
41654;BMP280;30790;52.030;7.110;2023-02-24T07:46:39;100147.78;;;21.15
41654;BMP280;30790;52.030;7.110;2023-02-24T07:49:07;100139.28;;;21.11
41654;BMP280;30790;52.030;7.110;2023-02-24T07:51:35;100152.13;;;21.11
41654;BMP280;30790;52.030;7.110;2023-02-24T07:54:01;100143.94;;;21.11
41654;BMP280;30790;52.030;7.110;2023-02-24T07:56:28;100144.69;;;21.06
41654;BMP280;30790;52.030;7.110;2023-02-24T07:59:03;100140.63;;;21.09
41654;BMP280;30790;52.030;7.110;2023-02-24T08:01:34;100134.59;;;21.07
41654;BMP280;30790;52.030;7.110;2023-02-24T08:04:05;100126.13;;;21.03
41654;BMP280;30790;52.030;7.110;2023-02-24T08:06:36;100121.22;;;21.05
41654;BMP280;30790;52.030;7.110;2023-02-24T08:09:11;100115.22;;;21.03
41654;BMP280;30790;52.030;7.110;2023-02-24T08:11:54;100108.66;;;20.99
41654;BMP280;30790;52.030;7.110;2023-02-24T08:14:29;100112.44;;;20.93
41654;BMP280;30790;52.030;7.110;2023-02-24T08:17:00;100101.53;;;20.93
41654;BMP280;30790;52.030;7.110;2023-02-24T08:19:27;100107.81;;;20.93
41654;BMP280;30790;52.030;7.110;2023-02-24T08:22:14;100102.88;;;20.90
41654;BMP280;30790;52.030;7.110;2023-02-24T08:24:54;100099.06;;;20.91
41654;BMP280;30790;52.030;7.110;2023-02-24T08:27:26;100097.19;;;20.97
41654;BMP280;30790;52.030;7.110;2023-02-24T08:29:55;100097.19;;;20.97
41654;BMP280;30790;52.030;7.110;2023-02-24T08:32:38;100090.38;;;20.99
41654;BMP280;30790;52.030;7.110;2023-02-24T08:35:10;100081.38;;;20.99
41654;BMP280;30790;52.030;7.110;2023-02-24T08:37:44;100074.00;;;20.99
41654;BMP280;30790;52.030;7.110;2023-02-24T08:40:18;100080.28;;;21.00
41654;BMP280;30790;52.030;7.110;2023-02-24T08:43:10;100074.28;;;21.03
41654;BMP280;30790;52.030;7.110;2023-02-24T08:48:37;100068.28;;;21.06
41654;BMP280;30790;52.030;7.110;2023-02-24T08:51:08;100065.00;;;21.04
41654;BMP280;30790;52.030;7.110;2023-02-24T08:53:35;100061.72;;;21.02
41654;BMP280;30790;52.030;7.110;2023-02-24T08:56:05;100059.25;;;21.01
41654;BMP280;30790;52.030;7.110;2023-02-24T08:58:37;100065.53;;;21.01
41654;BMP280;30790;52.030;7.110;2023-02-24T09:01:06;100048.06;;;20.97
41654;BMP280;30790;52.030;7.110;2023-02-24T09:03:44;100040.69;;;20.92
41654;BMP280;30790;52.030;7.110;2023-02-24T09:06:11;100036.03;;;20.88
41654;BMP280;30790;52.030;7.110;2023-02-24T09:08:42;100031.66;;;20.87
41654;BMP280;30790;52.030;7.110;2023-02-24T09:11:13;100042.03;;;20.85
41654;BMP280;30790;52.030;7.110;2023-02-24T09:13:44;100033.03;;;20.84
41654;BMP280;30790;52.030;7.110;2023-02-24T09:16:19;100034.09;;;20.83
41654;BMP280;30790;52.030;7.110;2023-02-24T09:18:47;100030.25;;;20.79
41654;BMP280;30790;52.030;7.110;2023-02-24T09:21:33;100017.97;;;20.77
41654;BMP280;30790;52.030;7.110;2023-02-24T09:24:31;100016.06;;;20.77
41654;BMP280;30790;52.030;7.110;2023-02-24T09:26:56;100015.22;;;20.77
41654;BMP280;30790;52.030;7.110;2023-02-24T09:29:23;100007.03;;;20.77
41654;BMP280;30790;52.030;7.110;2023-02-24T09:32:03;99999.91;;;19.91
41654;BMP280;30790;52.030;7.110;2023-02-24T09:34:34;99996.25;;;18.61
41654;BMP280;30790;52.030;7.110;2023-02-24T09:37:00;99988.56;;;17.98
41654;BMP280;30790;52.030;7.110;2023-02-24T09:39:28;99990.63;;;17.45
41654;BMP280;30790;52.030;7.110;2023-02-24T09:41:54;99981.50;;;17.51
41654;BMP280;30790;52.030;7.110;2023-02-24T09:44:48;99986.19;;;15.89
41654;BMP280;30790;52.030;7.110;2023-02-24T09:47:19;99966.28;;;17.50
41654;BMP280;30790;52.030;7.110;2023-02-24T09:50:27;99959.97;;;18.67
41654;BMP280;30790;52.030;7.110;2023-02-24T09:53:02;99965.69;;;19.41
41654;BMP280;30790;52.030;7.110;2023-02-24T09:55:56;99961.47;;;19.83
41654;BMP280;30790;52.030;7.110;2023-02-24T09:58:47;99947.19;;;20.02
41654;BMP280;30790;52.030;7.110;2023-02-24T10:06:19;99939.00;;;20.50
41654;BMP280;30790;52.030;7.110;2023-02-24T10:08:49;99938.78;;;20.56
41654;BMP280;30790;52.030;7.110;2023-02-24T10:11:16;99919.72;;;20.61
41654;BMP280;30790;52.030;7.110;2023-02-24T10:13:58;99931.50;;;20.77
41654;BMP280;30790;52.030;7.110;2023-02-24T10:16:24;99932.38;;;20.88
41654;BMP280;30790;52.030;7.110;2023-02-24T10:18:59;99928.56;;;20.94
41654;BMP280;30790;52.030;7.110;2023-02-24T10:21:58;99914.38;;;21.02
41654;BMP280;30790;52.030;7.110;2023-02-24T10:24:32;99915.47;;;21.06
41654;BMP280;30790;52.030;7.110;2023-02-24T10:27:26;99901.03;;;21.06
41654;BMP280;30790;52.030;7.110;2023-02-24T10:30:06;99900.19;;;21.05
41654;BMP280;30790;52.030;7.110;2023-02-24T10:32:56;99902.09;;;21.05
41654;BMP280;30790;52.030;7.110;2023-02-24T10:35:26;99892.00;;;21.05
41654;BMP280;30790;52.030;7.110;2023-02-24T10:37:58;99900.75;;;21.07
41654;BMP280;30790;52.030;7.110;2023-02-24T10:40:30;99890.91;;;21.06
41654;BMP280;30790;52.030;7.110;2023-02-24T10:43:09;99892.56;;;21.07
41654;BMP280;30790;52.030;7.110;2023-02-24T10:45:39;99897.22;;;21.12
41654;BMP280;30790;52.030;7.110;2023-02-24T10:48:15;99880.03;;;21.11
41654;BMP280;30790;52.030;7.110;2023-02-24T10:50:50;99889.31;;;21.10
41654;BMP280;30790;52.030;7.110;2023-02-24T10:53:21;99886.28;;;21.07
41654;BMP280;30790;52.030;7.110;2023-02-24T10:55:54;99876.75;;;21.09
41654;BMP280;30790;52.030;7.110;2023-02-24T10:58:40;99869.63;;;21.08
41654;BMP280;30790;52.030;7.110;2023-02-24T11:01:14;99863.13;;;21.09
41654;BMP280;30790;52.030;7.110;2023-02-24T11:03:49;99868.00;;;21.07
41654;BMP280;30790;52.030;7.110;2023-02-24T11:06:28;99859.81;;;21.02
41654;BMP280;30790;52.030;7.110;2023-02-24T11:11:58;99844.53;;;20.96
41654;BMP280;30790;52.030;7.110;2023-02-24T11:14:58;99844.81;;;20.89
41654;BMP280;30790;52.030;7.110;2023-02-24T11:17:54;99835.25;;;20.87
41654;BMP280;30790;52.030;7.110;2023-02-24T11:20:32;99830.34;;;20.84
41654;BMP280;30790;52.030;7.110;2023-02-24T11:23:01;99821.06;;;20.85
41654;BMP280;30790;52.030;7.110;2023-02-24T11:25:36;99811.22;;;20.79
41654;BMP280;30790;52.030;7.110;2023-02-24T11:33:26;99789.41;;;20.79
41654;BMP280;30790;52.030;7.110;2023-02-24T11:38:52;99779.56;;;20.73
41654;BMP280;30790;52.030;7.110;2023-02-24T11:41:34;99780.41;;;20.73
41654;BMP280;30790;52.030;7.110;2023-02-24T11:44:08;99770.31;;;20.68
41654;BMP280;30790;52.030;7.110;2023-02-24T11:46:49;99762.66;;;20.65
41654;BMP280;30790;52.030;7.110;2023-02-24T11:49:36;99762.66;;;20.65
41654;BMP280;30790;52.030;7.110;2023-02-24T11:52:08;99750.41;;;20.63
41654;BMP280;30790;52.030;7.110;2023-02-24T11:54:41;99739.75;;;20.61
41654;BMP280;30790;52.030;7.110;2023-02-24T11:57:17;99745.75;;;20.58
41654;BMP280;30790;52.030;7.110;2023-02-24T11:59:48;99744.13;;;20.62
41654;BMP280;30790;52.030;7.110;2023-02-24T12:02:41;99741.09;;;20.54
41654;BMP280;30790;52.030;7.110;2023-02-24T12:05:17;99746.31;;;20.55
41654;BMP280;30790;52.030;7.110;2023-02-24T12:07:48;99728.81;;;20.46
41654;BMP280;30790;52.030;7.110;2023-02-24T12:12:59;99735.38;;;20.50
41654;BMP280;30790;52.030;7.110;2023-02-24T12:15:29;99735.09;;;20.52
41654;BMP280;30790;52.030;7.110;2023-02-24T12:18:04;99725.28;;;20.46
41654;BMP280;30790;52.030;7.110;2023-02-24T12:20:38;99716.28;;;20.45
41654;BMP280;30790;52.030;7.110;2023-02-24T12:23:12;99712.47;;;20.46
41654;BMP280;30790;52.030;7.110;2023-02-24T12:26:21;99717.38;;;20.44
41654;BMP280;30790;52.030;7.110;2023-02-24T12:31:55;99718.47;;;20.48
41654;BMP280;30790;52.030;7.110;2023-02-24T12:34:42;99714.09;;;20.52
41654;BMP280;30790;52.030;7.110;2023-02-24T12:40:19;99707.31;;;20.55
41654;BMP280;30790;52.030;7.110;2023-02-24T12:51:16;99702.38;;;20.47
41654;BMP280;30790;52.030;7.110;2023-02-24T12:56:22;99703.19;;;20.47
41654;BMP280;30790;52.030;7.110;2023-02-24T12:58:55;99698.00;;;20.46
41654;BMP280;30790;52.030;7.110;2023-02-24T13:01:27;99683.84;;;20.44
41654;BMP280;30790;52.030;7.110;2023-02-24T13:09:53;99661.75;;;20.45
41654;BMP280;30790;52.030;7.110;2023-02-24T13:15:18;99644.88;;;20.68
41654;BMP280;30790;52.030;7.110;2023-02-24T13:17:49;99635.03;;;20.73
41654;BMP280;30790;52.030;7.110;2023-02-24T13:20:29;99634.47;;;20.81
41654;BMP280;30790;52.030;7.110;2023-02-24T13:22:55;99620.31;;;20.84
41654;BMP280;30790;52.030;7.110;2023-02-24T13:25:29;99623.00;;;20.94
41654;BMP280;30790;52.030;7.110;2023-02-24T13:27:59;99618.09;;;21.01
41654;BMP280;30790;52.030;7.110;2023-02-24T13:30:55;99611.53;;;21.02
41654;BMP280;30790;52.030;7.110;2023-02-24T13:35:41;99594.91;;;20.98
41654;BMP280;30790;52.030;7.110;2023-02-24T13:40:49;99597.88;;;21.02
41654;BMP280;30790;52.030;7.110;2023-02-24T13:43:25;99577.72;;;20.98
41654;BMP280;30790;52.030;7.110;2023-02-24T13:45:57;99586.72;;;20.98
41654;BMP280;30790;52.030;7.110;2023-02-24T13:51:17;99600.06;;;21.00
41654;BMP280;30790;52.030;7.110;2023-02-24T13:53:58;99586.19;;;20.96
41654;BMP280;30790;52.030;7.110;2023-02-24T13:56:49;99572.00;;;20.94
41654;BMP280;30790;52.030;7.110;2023-02-24T13:59:35;99565.19;;;20.92
41654;BMP280;30790;52.030;7.110;2023-02-24T14:04:36;99554.81;;;20.94
41654;BMP280;30790;52.030;7.110;2023-02-24T14:07:14;99553.72;;;20.95
41654;BMP280;30790;52.030;7.110;2023-02-24T14:09:45;99554.00;;;20.93
41654;BMP280;30790;52.030;7.110;2023-02-24T14:12:17;99544.19;;;20.92
41654;BMP280;30790;52.030;7.110;2023-02-24T14:14:45;99542.56;;;20.91
41654;BMP280;30790;52.030;7.110;2023-02-24T14:17:29;99539.81;;;20.91
41654;BMP280;30790;52.030;7.110;2023-02-24T14:22:31;99536.50;;;21.05
41654;BMP280;30790;52.030;7.110;2023-02-24T14:25:02;99529.94;;;21.11
41654;BMP280;30790;52.030;7.110;2023-02-24T14:27:28;99522.81;;;21.15
41654;BMP280;30790;52.030;7.110;2023-02-24T14:29:54;99528.81;;;21.17
41654;BMP280;30790;52.030;7.110;2023-02-24T14:32:23;99542.19;;;21.18
41654;BMP280;30790;52.030;7.110;2023-02-24T14:34:49;99542.19;;;21.18
41654;BMP280;30790;52.030;7.110;2023-02-24T14:37:23;99531.53;;;21.17
41654;BMP280;30790;52.030;7.110;2023-02-24T14:39:53;99565.66;;;21.14
41654;BMP280;30790;52.030;7.110;2023-02-24T14:42:20;99551.50;;;21.12
41654;BMP280;30790;52.030;7.110;2023-02-24T14:44:50;99546.03;;;21.12
41654;BMP280;30790;52.030;7.110;2023-02-24T14:47:19;99536.22;;;21.01
41654;BMP280;30790;52.030;7.110;2023-02-24T14:49:59;99527.22;;;21.06
41654;BMP280;30790;52.030;7.110;2023-02-24T14:52:35;99525.59;;;20.99
41654;BMP280;30790;52.030;7.110;2023-02-24T14:55:07;99532.41;;;21.02
41654;BMP280;30790;52.030;7.110;2023-02-24T15:00:22;99521.75;;;21.06
41654;BMP280;30790;52.030;7.110;2023-02-24T15:03:04;99515.47;;;21.05
41654;BMP280;30790;52.030;7.110;2023-02-24T15:05:33;99526.38;;;21.05
41654;BMP280;30790;52.030;7.110;2023-02-24T15:08:03;99514.13;;;21.03
41654;BMP280;30790;52.030;7.110;2023-02-24T15:10:29;99498.84;;;21.02
41654;BMP280;30790;52.030;7.110;2023-02-24T15:12:58;99512.47;;;21.07
41654;BMP280;30790;52.030;7.110;2023-02-24T15:15:29;99515.47;;;21.05
41654;BMP280;30790;52.030;7.110;2023-02-24T15:18:04;99506.72;;;21.08
41654;BMP280;30790;52.030;7.110;2023-02-24T15:20:36;99496.09;;;21.07
41654;BMP280;30790;52.030;7.110;2023-02-24T15:23:04;99505.38;;;21.11
41654;BMP280;30790;52.030;7.110;2023-02-24T15:25:41;99505.91;;;21.13
41654;BMP280;30790;52.030;7.110;2023-02-24T15:31:15;99502.09;;;21.09
41654;BMP280;30790;52.030;7.110;2023-02-24T15:33:43;99502.66;;;21.11
41654;BMP280;30790;52.030;7.110;2023-02-24T15:36:19;99487.13;;;21.01
41654;BMP280;30790;52.030;7.110;2023-02-24T15:38:45;99477.84;;;21.02
41654;BMP280;30790;52.030;7.110;2023-02-24T15:41:12;99479.72;;;21.07
41654;BMP280;30790;52.030;7.110;2023-02-24T15:48:45;99470.19;;;21.04
41654;BMP280;30790;52.030;7.110;2023-02-24T15:51:40;99463.09;;;21.03
41654;BMP280;30790;52.030;7.110;2023-02-24T15:54:11;99460.41;;;20.98
41654;BMP280;30790;52.030;7.110;2023-02-24T15:56:40;99458.22;;;21.00
41654;BMP280;30790;52.030;7.110;2023-02-24T15:59:06;99460.69;;;20.96
41654;BMP280;30790;52.030;7.110;2023-02-24T16:01:32;99469.44;;;20.93
41654;BMP280;30790;52.030;7.110;2023-02-24T16:03:58;99468.09;;;20.91
41654;BMP280;30790;52.030;7.110;2023-02-24T16:06:24;99462.63;;;20.91